Station Historical Data
Daily Summary for March 7, 2017 Units:  Both    English   Metric
« Previous Day
Next Day »
Daily Weekly Monthly Yearly Custom
  High: Low: Average:
Temperature: 58.3 °F /  14.6 °C 41.4 °F /  5.2 °C 52 °F /  11.1 °C
Dew Point: 52.5 °F /  11.4 °C 33.6 °F /  0.9 °C 47.8 °F /  8.8 °C
Humidity: 92% 68% 86%
Wind Speed: 15.0mph /  24.1km/h - 5.9mph /  9.5km/h
Wind Gust: 21.0mph /  33.8km/h - -
Wind- - SSW
Pressure: 30.07 in /  1018.2 hPa 29.79 in /  1008.7 hPa -
Precipitation: 0.00 in /  0 mm    
Historical Graphs
 
 
Tabular Data for March 7, 2017
Time Temperature Dew Point Pressure Wind Wind Speed Wind Gust Humidity Rainfall Rate (Hourly)
00:04 52.8 °F /  11.6 °C 46.5 °F /  8.1 °C 30.07in /  1018.2hPa South 5.0mph /  8km/h 17.0mph /  27.4km/h 79% 0.00in /  0mm
00:09 52.5 °F /  11.4 °C 46.5 °F /  8.1 °C 30.07in /  1018.2hPa SE 5.0mph /  8km/h 9.0mph /  14.5km/h 80% 0.00in /  0mm
00:14 52.4 °F /  11.3 °C 46.4 °F /  8 °C 30.07in /  1018.2hPa South 3.0mph /  4.8km/h 14.0mph /  22.5km/h 80% 0.00in /  0mm
00:19 52.3 °F /  11.3 °C 46.6 °F /  8.1 °C 30.07in /  1018.2hPa South 3.0mph /  4.8km/h 9.0mph /  14.5km/h 81% 0.00in /  0mm
00:24 52.3 °F /  11.3 °C 46.6 °F /  8.1 °C 30.07in /  1018.2hPa SSE 8.0mph /  12.9km/h 11.0mph /  17.7km/h 81% 0.00in /  0mm
00:29 52.2 °F /  11.2 °C 46.9 °F /  8.3 °C 30.07in /  1018.2hPa SSW 7.0mph /  11.3km/h 12.0mph /  19.3km/h 82% 0.00in /  0mm
00:34 51.9 °F /  11.1 °C 46.9 °F /  8.3 °C 30.07in /  1018.2hPa SSW 7.0mph /  11.3km/h 12.0mph /  19.3km/h 83% 0.00in /  0mm
00:39 51.5 °F /  10.8 °C 47.1 °F /  8.4 °C 30.07in /  1018.2hPa SSW 6.0mph /  9.7km/h 12.0mph /  19.3km/h 85% 0.00in /  0mm
00:44 51.2 °F /  10.7 °C 47.2 °F /  8.4 °C 30.07in /  1018.2hPa South 5.0mph /  8km/h 12.0mph /  19.3km/h 86% 0.00in /  0mm
00:49 50.9 °F /  10.5 °C 47.2 °F /  8.4 °C 30.07in /  1018.2hPa South 5.0mph /  8km/h 11.0mph /  17.7km/h 87% 0.00in /  0mm
00:54 50.7 °F /  10.4 °C 47.3 °F /  8.5 °C 30.07in /  1018.2hPa SSW 5.0mph /  8km/h 11.0mph /  17.7km/h 88% 0.00in /  0mm
00:59 50.6 °F /  10.3 °C 47.2 °F /  8.4 °C 30.07in /  1018.2hPa SSW 5.0mph /  8km/h 7.0mph /  11.3km/h 88% 0.01in /  0.25mm
01:04 50.5 °F /  10.3 °C 47.4 °F /  8.6 °C 30.06in /  1017.8hPa South 2.0mph /  3.2km/h 8.0mph /  12.9km/h 89% 0.01in /  0.25mm
01:09 50.4 °F /  10.2 °C 47.3 °F /  8.5 °C 30.06in /  1017.8hPa SW 4.0mph /  6.4km/h 8.0mph /  12.9km/h 89% 0.01in /  0.25mm
01:14 50.3 °F /  10.2 °C 47.5 °F /  8.6 °C 30.06in /  1017.8hPa South 5.0mph /  8km/h 7.0mph /  11.3km/h 90% 0.01in /  0.25mm
01:19 50.2 °F /  10.1 °C 47.4 °F /  8.6 °C 30.06in /  1017.8hPa South 3.0mph /  4.8km/h 8.0mph /  12.9km/h 90% 0.02in /  0.51mm
01:24 50.2 °F /  10.1 °C 47.4 °F /  8.6 °C 30.05in /  1017.5hPa South 5.0mph /  8km/h 7.0mph /  11.3km/h 90% 0.02in /  0.51mm
01:29 50.1 °F /  10.1 °C 47.6 °F /  8.7 °C 30.05in /  1017.5hPa South 3.0mph /  4.8km/h 8.0mph /  12.9km/h 91% 0.02in /  0.51mm
01:34 50.1 °F /  10.1 °C 47.6 °F /  8.7 °C 30.04in /  1017.2hPa South 4.0mph /  6.4km/h 8.0mph /  12.9km/h 91% 0.03in /  0.76mm
01:39 50.1 °F /  10.1 °C 47.6 °F /  8.7 °C 30.04in /  1017.2hPa South 4.0mph /  6.4km/h 8.0mph /  12.9km/h 91% 0.03in /  0.76mm
01:44 50.1 °F /  10.1 °C 47.6 °F /  8.7 °C 30.04in /  1017.2hPa South 4.0mph /  6.4km/h 8.0mph /  12.9km/h 91% 0.04in /  1.02mm
01:49 50.1 °F /  10.1 °C 47.6 °F /  8.7 °C 30.04in /  1017.2hPa South 4.0mph /  6.4km/h 9.0mph /  14.5km/h 91% 0.05in /  1.27mm
01:54 50.1 °F /  10.1 °C 47.6 °F /  8.7 °C 30.04in /  1017.2hPa South 4.0mph /  6.4km/h 9.0mph /  14.5km/h 91% 0.07in /  1.78mm
01:59 50.1 °F /  10.1 °C 47.9 °F /  8.8 °C 30.03in /  1016.8hPa SSW 3.0mph /  4.8km/h 7.0mph /  11.3km/h 92% 0.07in /  1.78mm
02:04 50.1 °F /  10.1 °C 47.9 °F /  8.8 °C 30.03in /  1016.8hPa South 2.0mph /  3.2km/h 7.0mph /  11.3km/h 92% 0.08in /  2.03mm
02:09 50.1 °F /  10.1 °C 47.9 °F /  8.8 °C 30.03in /  1016.8hPa SSE 4.0mph /  6.4km/h 7.0mph /  11.3km/h 92% 0.09in /  2.29mm
02:14 50.2 °F /  10.1 °C 48.0 °F /  8.9 °C 30.03in /  1016.8hPa South 4.0mph /  6.4km/h 7.0mph /  11.3km/h 92% 0.09in /  2.29mm
02:19 50.2 °F /  10.1 °C 48.0 °F /  8.9 °C 30.02in /  1016.5hPa South 4.0mph /  6.4km/h 7.0mph /  11.3km/h 92% 0.09in /  2.29mm
02:24 50.2 °F /  10.1 °C 48.0 °F /  8.9 °C 30.02in /  1016.5hPa South 4.0mph /  6.4km/h 7.0mph /  11.3km/h 92% 0.09in /  2.29mm
02:29 50.2 °F /  10.1 °C 48.0 °F /  8.9 °C 30.02in /  1016.5hPa South 3.0mph /  4.8km/h 8.0mph /  12.9km/h 92% 0.09in /  2.29mm
02:34 50.2 °F /  10.1 °C 48.0 °F /  8.9 °C 30.02in /  1016.5hPa SW 5.0mph /  8km/h 8.0mph /  12.9km/h 92% 0.08in /  2.03mm
02:39 50.3 °F /  10.2 °C 47.8 °F /  8.8 °C 30.02in /  1016.5hPa SSW 5.0mph /  8km/h 9.0mph /  14.5km/h 91% 0.08in /  2.03mm
02:44 50.5 °F /  10.3 °C 48.3 °F /  9.1 °C 30.02in /  1016.5hPa South 5.0mph /  8km/h 9.0mph /  14.5km/h 92% 0.07in /  1.78mm
02:49 50.8 °F /  10.4 °C 48.3 °F /  9.1 °C 30.01in /  1016.1hPa SW 4.0mph /  6.4km/h 10.0mph /  16.1km/h 91% 0.06in /  1.52mm
02:54 51.0 °F /  10.6 °C 48.5 °F /  9.2 °C 30.01in /  1016.1hPa South 5.0mph /  8km/h 7.0mph /  11.3km/h 91% 0.05in /  1.27mm
02:59 51.2 °F /  10.7 °C 48.4 °F /  9.1 °C 30.01in /  1016.1hPa SSW 7.0mph /  11.3km/h 15.0mph /  24.1km/h 90% 0.04in /  1.02mm
03:04 51.5 °F /  10.8 °C 48.7 °F /  9.3 °C 30.01in /  1016.1hPa South 3.0mph /  4.8km/h 11.0mph /  17.7km/h 90% 0.03in /  0.76mm
03:09 51.5 °F /  10.8 °C 48.4 °F /  9.1 °C 30.01in /  1016.1hPa South 7.0mph /  11.3km/h 10.0mph /  16.1km/h 89% 0.02in /  0.51mm
03:14 51.5 °F /  10.8 °C 48.4 °F /  9.1 °C 30.01in /  1016.1hPa SSW 5.0mph /  8km/h 10.0mph /  16.1km/h 89% 0.02in /  0.51mm
03:19 51.6 °F /  10.9 °C 48.5 °F /  9.2 °C 30.00in /  1015.8hPa SSW 6.0mph /  9.7km/h 11.0mph /  17.7km/h 89% 0.03in /  0.76mm
03:24 51.6 °F /  10.9 °C 48.5 °F /  9.2 °C 30.00in /  1015.8hPa SSW 6.0mph /  9.7km/h 13.0mph /  20.9km/h 89% 0.03in /  0.76mm
03:29 51.6 °F /  10.9 °C 48.5 °F /  9.2 °C 30.00in /  1015.8hPa SSW 6.0mph /  9.7km/h 13.0mph /  20.9km/h 89% 0.05in /  1.27mm
03:34 51.5 °F /  10.8 °C 48.7 °F /  9.3 °C 30.00in /  1015.8hPa SSW 1.0mph /  1.6km/h 11.0mph /  17.7km/h 90% 0.06in /  1.52mm
03:39 51.5 °F /  10.8 °C 48.7 °F /  9.3 °C 30.00in /  1015.8hPa South 7.0mph /  11.3km/h 10.0mph /  16.1km/h 90% 0.06in /  1.52mm
03:44 51.6 °F /  10.9 °C 48.8 °F /  9.3 °C 29.99in /  1015.5hPa South 8.0mph /  12.9km/h 12.0mph /  19.3km/h 90% 0.07in /  1.78mm
03:49 51.6 °F /  10.9 °C 48.8 °F /  9.3 °C 29.99in /  1015.5hPa South 6.0mph /  9.7km/h 15.0mph /  24.1km/h 90% 0.07in /  1.78mm
03:54 51.6 °F /  10.9 °C 49.1 °F /  9.5 °C 29.99in /  1015.5hPa South 6.0mph /  9.7km/h 15.0mph /  24.1km/h 91% 0.06in /  1.52mm
03:59 51.6 °F /  10.9 °C 49.1 °F /  9.5 °C 29.99in /  1015.5hPa South 5.0mph /  8km/h 11.0mph /  17.7km/h 91% 0.07in /  1.78mm
04:04 51.8 °F /  11 °C 49.0 °F /  9.4 °C 29.99in /  1015.5hPa South 6.0mph /  9.7km/h 11.0mph /  17.7km/h 90% 0.07in /  1.78mm
04:09 51.8 °F /  11 °C 49.0 °F /  9.4 °C 29.98in /  1015.1hPa SSW 4.0mph /  6.4km/h 17.0mph /  27.4km/h 90% 0.07in /  1.78mm
04:14 52.0 °F /  11.1 °C 49.2 °F /  9.6 °C 29.98in /  1015.1hPa South 6.0mph /  9.7km/h 12.0mph /  19.3km/h 90% 0.07in /  1.78mm
04:19 52.1 °F /  11.2 °C 49.3 °F /  9.6 °C 29.98in /  1015.1hPa South 6.0mph /  9.7km/h 12.0mph /  19.3km/h 90% 0.05in /  1.27mm
04:24 52.2 °F /  11.2 °C 49.1 °F /  9.5 °C 29.98in /  1015.1hPa SE 7.0mph /  11.3km/h 12.0mph /  19.3km/h 89% 0.05in /  1.27mm
04:29 52.2 °F /  11.2 °C 49.1 °F /  9.5 °C 29.98in /  1015.1hPa South 6.0mph /  9.7km/h 12.0mph /  19.3km/h 89% 0.04in /  1.02mm
04:34 52.2 °F /  11.2 °C 49.1 °F /  9.5 °C 29.98in /  1015.1hPa South 8.0mph /  12.9km/h 9.0mph /  14.5km/h 89% 0.04in /  1.02mm
04:39 52.3 °F /  11.3 °C 49.2 °F /  9.6 °C 29.98in /  1015.1hPa South 7.0mph /  11.3km/h 15.0mph /  24.1km/h 89% 0.05in /  1.27mm
04:44 52.3 °F /  11.3 °C 49.2 °F /  9.6 °C 29.98in /  1015.1hPa South 8.0mph /  12.9km/h 12.0mph /  19.3km/h 89% 0.05in /  1.27mm
04:49 52.2 °F /  11.2 °C 49.1 °F /  9.5 °C 29.98in /  1015.1hPa South 6.0mph /  9.7km/h 12.0mph /  19.3km/h 89% 0.06in /  1.52mm
04:54 52.2 °F /  11.2 °C 49.4 °F /  9.7 °C 29.98in /  1015.1hPa South 6.0mph /  9.7km/h 12.0mph /  19.3km/h 90% 0.06in /  1.52mm
04:59 52.3 °F /  11.3 °C 49.5 °F /  9.7 °C 29.98in /  1015.1hPa South 7.0mph /  11.3km/h 12.0mph /  19.3km/h 90% 0.06in /  1.52mm
05:04 52.3 °F /  11.3 °C 49.5 °F /  9.7 °C 29.97in /  1014.8hPa South 7.0mph /  11.3km/h 12.0mph /  19.3km/h 90% 0.08in /  2.03mm
05:09 52.4 °F /  11.3 °C 49.6 °F /  9.8 °C 29.97in /  1014.8hPa South 5.0mph /  8km/h 13.0mph /  20.9km/h 90% 0.09in /  2.29mm
05:14 52.5 °F /  11.4 °C 49.7 °F /  9.8 °C 29.97in /  1014.8hPa SSE 7.0mph /  11.3km/h 11.0mph /  17.7km/h 90% 0.09in /  2.29mm
05:19 52.5 °F /  11.4 °C 49.4 °F /  9.7 °C 29.97in /  1014.8hPa South 6.0mph /  9.7km/h 14.0mph /  22.5km/h 89% 0.09in /  2.29mm
05:24 52.6 °F /  11.4 °C 49.4 °F /  9.7 °C 29.97in /  1014.8hPa South 7.0mph /  11.3km/h 14.0mph /  22.5km/h 89% 0.09in /  2.29mm
05:29 52.7 °F /  11.5 °C 49.5 °F /  9.7 °C 29.97in /  1014.8hPa South 6.0mph /  9.7km/h 14.0mph /  22.5km/h 89% 0.08in /  2.03mm
05:34 52.6 °F /  11.4 °C 49.4 °F /  9.7 °C 29.97in /  1014.8hPa South 7.0mph /  11.3km/h 14.0mph /  22.5km/h 89% 0.07in /  1.78mm
05:39 52.6 °F /  11.4 °C 49.4 °F /  9.7 °C 29.97in /  1014.8hPa South 7.0mph /  11.3km/h 13.0mph /  20.9km/h 89% 0.06in /  1.52mm
05:44 52.7 °F /  11.5 °C 49.5 °F /  9.7 °C 29.97in /  1014.8hPa SSW 5.0mph /  8km/h 13.0mph /  20.9km/h 89% 0.05in /  1.27mm
05:49 52.6 °F /  11.4 °C 49.1 °F /  9.5 °C 29.96in /  1014.4hPa South 6.0mph /  9.7km/h 14.0mph /  22.5km/h 88% 0.04in /  1.02mm
05:54 52.7 °F /  11.5 °C 49.2 °F /  9.6 °C 29.96in /  1014.4hPa SSE 8.0mph /  12.9km/h 16.0mph /  25.7km/h 88% 0.04in /  1.02mm
05:59 52.8 °F /  11.6 °C 49.3 °F /  9.6 °C 29.96in /  1014.4hPa South 7.0mph /  11.3km/h 16.0mph /  25.7km/h 88% 0.03in /  0.76mm
06:04 52.8 °F /  11.6 °C 49.3 °F /  9.6 °C 29.96in /  1014.4hPa South 7.0mph /  11.3km/h 16.0mph /  25.7km/h 88% 0.01in /  0.25mm
06:09 53.0 °F /  11.7 °C 49.5 °F /  9.7 °C 29.95in /  1014.1hPa South 7.0mph /  11.3km/h 16.0mph /  25.7km/h 88% 0.00in /  0mm
06:14 53.0 °F /  11.7 °C 49.2 °F /  9.6 °C 29.95in /  1014.1hPa SSW 7.0mph /  11.3km/h 9.0mph /  14.5km/h 87% 0.00in /  0mm
06:19 53.0 °F /  11.7 °C 49.2 °F /  9.6 °C 29.95in /  1014.1hPa SSW 3.0mph /  4.8km/h 10.0mph /  16.1km/h 87% 0.00in /  0mm
06:24 53.1 °F /  11.7 °C 49.3 °F /  9.6 °C 29.95in /  1014.1hPa SSW 5.0mph /  8km/h 13.0mph /  20.9km/h 87% 0.00in /  0mm
06:29 53.2 °F /  11.8 °C 49.4 °F /  9.7 °C 29.95in /  1014.1hPa South 4.0mph /  6.4km/h 9.0mph /  14.5km/h 87% 0.00in /  0mm
06:34 53.2 °F /  11.8 °C 49.1 °F /  9.5 °C 29.94in /  1013.8hPa South 5.0mph /  8km/h 10.0mph /  16.1km/h 86% 0.00in /  0mm
06:39 53.3 °F /  11.8 °C 49.2 °F /  9.6 °C 29.94in /  1013.8hPa South 5.0mph /  8km/h 10.0mph /  16.1km/h 86% 0.00in /  0mm
06:44 53.4 °F /  11.9 °C 49.3 °F /  9.6 °C 29.94in /  1013.8hPa South 6.0mph /  9.7km/h 10.0mph /  16.1km/h 86% 0.00in /  0mm
06:49 53.5 °F /  11.9 °C 49.4 °F /  9.7 °C 29.94in /  1013.8hPa South 5.0mph /  8km/h 10.0mph /  16.1km/h 86% 0.00in /  0mm
06:54 53.6 °F /  12 °C 49.2 °F /  9.6 °C 29.94in /  1013.8hPa SSW 7.0mph /  11.3km/h 12.0mph /  19.3km/h 85% 0.00in /  0mm
06:59 53.8 °F /  12.1 °C 49.4 °F /  9.7 °C 29.94in /  1013.8hPa South 8.0mph /  12.9km/h 11.0mph /  17.7km/h 85% 0.00in /  0mm
07:04 53.9 °F /  12.2 °C 49.5 °F /  9.7 °C 29.94in /  1013.8hPa South 5.0mph /  8km/h 11.0mph /  17.7km/h 85% 0.00in /  0mm
07:09 54.0 °F /  12.2 °C 49.3 °F /  9.6 °C 29.94in /  1013.8hPa South 6.0mph /  9.7km/h 11.0mph /  17.7km/h 84% 0.00in /  0mm
07:14 54.2 °F /  12.3 °C 49.5 °F /  9.7 °C 29.94in /  1013.8hPa South 6.0mph /  9.7km/h 14.0mph /  22.5km/h 84% 0.00in /  0mm
07:19 54.3 °F /  12.4 °C 49.2 °F /  9.6 °C 29.94in /  1013.8hPa SW 4.0mph /  6.4km/h 9.0mph /  14.5km/h 83% 0.00in /  0mm
07:24 54.3 °F /  12.4 °C 49.2 °F /  9.6 °C 29.94in /  1013.8hPa SSE 5.0mph /  8km/h 9.0mph /  14.5km/h 83% 0.00in /  0mm
07:29 54.3 °F /  12.4 °C 49.2 °F /  9.6 °C 29.94in /  1013.8hPa SE 4.0mph /  6.4km/h 9.0mph /  14.5km/h 83% 0.00in /  0mm
07:34 54.4 °F /  12.4 °C 49.3 °F /  9.6 °C 29.94in /  1013.8hPa South 6.0mph /  9.7km/h 12.0mph /  19.3km/h 83% 0.00in /  0mm
07:39 54.8 °F /  12.7 °C 49.4 °F /  9.7 °C 29.94in /  1013.8hPa South 7.0mph /  11.3km/h 16.0mph /  25.7km/h 82% 0.00in /  0mm
07:44 55.0 °F /  12.8 °C 49.3 °F /  9.6 °C 29.94in /  1013.8hPa South 7.0mph /  11.3km/h 16.0mph /  25.7km/h 81% 0.00in /  0mm
07:49 55.1 °F /  12.8 °C 49.4 °F /  9.7 °C 29.94in /  1013.8hPa South 7.0mph /  11.3km/h 13.0mph /  20.9km/h 81% 0.01in /  0.25mm
07:54 54.9 °F /  12.7 °C 49.5 °F /  9.7 °C 29.94in /  1013.8hPa SSW 6.0mph /  9.7km/h 13.0mph /  20.9km/h 82% 0.02in /  0.51mm
07:59 54.7 °F /  12.6 °C 49.6 °F /  9.8 °C 29.94in /  1013.8hPa SSW 8.0mph /  12.9km/h 12.0mph /  19.3km/h 83% 0.02in /  0.51mm
08:04 54.5 °F /  12.5 °C 49.8 °F /  9.9 °C 29.94in /  1013.8hPa South 4.0mph /  6.4km/h 12.0mph /  19.3km/h 84% 0.04in /  1.02mm
08:09 54.3 °F /  12.4 °C 49.6 °F /  9.8 °C 29.94in /  1013.8hPa SSW 7.0mph /  11.3km/h 16.0mph /  25.7km/h 84% 0.04in /  1.02mm
08:14 54.2 °F /  12.3 °C 49.5 °F /  9.7 °C 29.94in /  1013.8hPa South 6.0mph /  9.7km/h 16.0mph /  25.7km/h 84% 0.04in /  1.02mm
08:19 54.1 °F /  12.3 °C 49.7 °F /  9.8 °C 29.94in /  1013.8hPa South 6.0mph /  9.7km/h 12.0mph /  19.3km/h 85% 0.04in /  1.02mm
08:24 54.0 °F /  12.2 °C 49.6 °F /  9.8 °C 29.94in /  1013.8hPa South 6.0mph /  9.7km/h 14.0mph /  22.5km/h 85% 0.05in /  1.27mm
08:29 53.9 °F /  12.2 °C 49.5 °F /  9.7 °C 29.94in /  1013.8hPa South 6.0mph /  9.7km/h 14.0mph /  22.5km/h 85% 0.05in /  1.27mm
08:34 53.9 °F /  12.2 °C 49.5 °F /  9.7 °C 29.94in /  1013.8hPa South 6.0mph /  9.7km/h 13.0mph /  20.9km/h 85% 0.05in /  1.27mm
08:39 53.8 °F /  12.1 °C 49.7 °F /  9.8 °C 29.94in /  1013.8hPa SSW 7.0mph /  11.3km/h 10.0mph /  16.1km/h 86% 0.05in /  1.27mm
08:44 53.8 °F /  12.1 °C 49.7 °F /  9.8 °C 29.95in /  1014.1hPa SSE 5.0mph /  8km/h 11.0mph /  17.7km/h 86% 0.05in /  1.27mm
08:49 53.7 °F /  12.1 °C 49.6 °F /  9.8 °C 29.95in /  1014.1hPa South 6.0mph /  9.7km/h 11.0mph /  17.7km/h 86% 0.05in /  1.27mm
08:54 53.5 °F /  11.9 °C 49.7 °F /  9.8 °C 29.95in /  1014.1hPa SSE 7.0mph /  11.3km/h 9.0mph /  14.5km/h 87% 0.04in /  1.02mm
08:59 53.4 °F /  11.9 °C 49.6 °F /  9.8 °C 29.95in /  1014.1hPa SSW 4.0mph /  6.4km/h 11.0mph /  17.7km/h 87% 0.04in /  1.02mm
09:04 53.3 °F /  11.8 °C 49.8 °F /  9.9 °C 29.94in /  1013.8hPa SSE 6.0mph /  9.7km/h 8.0mph /  12.9km/h 88% 0.03in /  0.76mm
09:09 53.2 °F /  11.8 °C 49.7 °F /  9.8 °C 29.94in /  1013.8hPa SSW 5.0mph /  8km/h 9.0mph /  14.5km/h 88% 0.04in /  1.02mm
09:14 53.3 °F /  11.8 °C 49.8 °F /  9.9 °C 29.94in /  1013.8hPa South 5.0mph /  8km/h 8.0mph /  12.9km/h 88% 0.05in /  1.27mm
09:19 53.2 °F /  11.8 °C 49.7 °F /  9.8 °C 29.94in /  1013.8hPa South 7.0mph /  11.3km/h 10.0mph /  16.1km/h 88% 0.07in /  1.78mm
09:24 53.3 °F /  11.8 °C 50.1 °F /  10.1 °C 29.94in /  1013.8hPa South 5.0mph /  8km/h 10.0mph /  16.1km/h 89% 0.07in /  1.78mm
09:29 53.4 °F /  11.9 °C 50.2 °F /  10.1 °C 29.94in /  1013.8hPa South 5.0mph /  8km/h 9.0mph /  14.5km/h 89% 0.08in /  2.03mm
09:34 53.5 °F /  11.9 °C 50.0 °F /  10 °C 29.94in /  1013.8hPa SSW 5.0mph /  8km/h 11.0mph /  17.7km/h 88% 0.08in /  2.03mm
09:39 53.6 °F /  12 °C 50.1 °F /  10.1 °C 29.94in /  1013.8hPa SSW 5.0mph /  8km/h 11.0mph /  17.7km/h 88% 0.09in /  2.29mm
09:44 53.9 °F /  12.2 °C 50.4 °F /  10.2 °C 29.94in /  1013.8hPa SSW 2.0mph /  3.2km/h 9.0mph /  14.5km/h 88% 0.09in /  2.29mm
09:49 54.1 °F /  12.3 °C 50.3 °F /  10.2 °C 29.93in /  1013.4hPa SSW 7.0mph /  11.3km/h 11.0mph /  17.7km/h 87% 0.08in /  2.03mm
09:54 54.1 °F /  12.3 °C 50.3 °F /  10.2 °C 29.93in /  1013.4hPa SSW 5.0mph /  8km/h 9.0mph /  14.5km/h 87% 0.09in /  2.29mm
09:59 54.1 °F /  12.3 °C 50.3 °F /  10.2 °C 29.93in /  1013.4hPa SSW 5.0mph /  8km/h 12.0mph /  19.3km/h 87% 0.09in /  2.29mm
10:04 54.2 °F /  12.3 °C 50.4 °F /  10.2 °C 29.93in /  1013.4hPa South 8.0mph /  12.9km/h 10.0mph /  16.1km/h 87% 0.08in /  2.03mm
10:09 54.1 °F /  12.3 °C 50.3 °F /  10.2 °C 29.92in /  1013.1hPa SSE 4.0mph /  6.4km/h 12.0mph /  19.3km/h 87% 0.08in /  2.03mm
10:14 54.1 °F /  12.3 °C 50.6 °F /  10.3 °C 29.92in /  1013.1hPa South 6.0mph /  9.7km/h 9.0mph /  14.5km/h 88% 0.07in /  1.78mm
10:19 54.2 °F /  12.3 °C 50.7 °F /  10.4 °C 29.92in /  1013.1hPa South 4.0mph /  6.4km/h 10.0mph /  16.1km/h 88% 0.06in /  1.52mm
10:24 54.2 °F /  12.3 °C 50.7 °F /  10.4 °C 29.92in /  1013.1hPa SSW 6.0mph /  9.7km/h 8.0mph /  12.9km/h 88% 0.05in /  1.27mm
10:29 54.3 °F /  12.4 °C 50.5 °F /  10.3 °C 29.92in /  1013.1hPa SW 8.0mph /  12.9km/h 9.0mph /  14.5km/h 87% 0.04in /  1.02mm
10:34 54.6 °F /  12.6 °C 50.8 °F /  10.4 °C 29.91in /  1012.8hPa SSW 5.0mph /  8km/h 10.0mph /  16.1km/h 87% 0.04in /  1.02mm
10:39 54.8 °F /  12.7 °C 51.0 °F /  10.6 °C 29.91in /  1012.8hPa SSW 6.0mph /  9.7km/h 12.0mph /  19.3km/h 87% 0.04in /  1.02mm
10:44 55.0 °F /  12.8 °C 50.9 °F /  10.5 °C 29.91in /  1012.8hPa SSW 6.0mph /  9.7km/h 13.0mph /  20.9km/h 86% 0.04in /  1.02mm
10:49 55.4 °F /  13 °C 51.3 °F /  10.7 °C 29.91in /  1012.8hPa SSW 7.0mph /  11.3km/h 13.0mph /  20.9km/h 86% 0.04in /  1.02mm
10:54 55.6 °F /  13.1 °C 51.5 °F /  10.8 °C 29.91in /  1012.8hPa SSW 7.0mph /  11.3km/h 14.0mph /  22.5km/h 86% 0.03in /  0.76mm
10:59 55.7 °F /  13.2 °C 51.3 °F /  10.7 °C 29.91in /  1012.8hPa SSW 8.0mph /  12.9km/h 14.0mph /  22.5km/h 85% 0.03in /  0.76mm
11:04 56.0 °F /  13.3 °C 51.6 °F /  10.9 °C 29.91in /  1012.8hPa SSW 8.0mph /  12.9km/h 15.0mph /  24.1km/h 85% 0.03in /  0.76mm
11:09 56.0 °F /  13.3 °C 51.6 °F /  10.9 °C 29.91in /  1012.8hPa SSE 6.0mph /  9.7km/h 14.0mph /  22.5km/h 85% 0.02in /  0.51mm
11:14 55.6 °F /  13.1 °C 51.2 °F /  10.7 °C 29.91in /  1012.8hPa SW 7.0mph /  11.3km/h 15.0mph /  24.1km/h 85% 0.03in /  0.76mm
11:19 55.2 °F /  12.9 °C 51.1 °F /  10.6 °C 29.91in /  1012.8hPa SW 5.0mph /  8km/h 14.0mph /  22.5km/h 86% 0.02in /  0.51mm
11:24 55.0 °F /  12.8 °C 50.9 °F /  10.5 °C 29.90in /  1012.4hPa SSW 4.0mph /  6.4km/h 18.0mph /  29km/h 86% 0.03in /  0.76mm
11:29 54.8 °F /  12.7 °C 50.7 °F /  10.4 °C 29.90in /  1012.4hPa SW 7.0mph /  11.3km/h 14.0mph /  22.5km/h 86% 0.03in /  0.76mm
11:34 54.8 °F /  12.7 °C 51.0 °F /  10.6 °C 29.89in /  1012.1hPa South 5.0mph /  8km/h 15.0mph /  24.1km/h 87% 0.03in /  0.76mm
11:39 54.9 °F /  12.7 °C 50.8 °F /  10.4 °C 29.89in /  1012.1hPa South 7.0mph /  11.3km/h 15.0mph /  24.1km/h 86% 0.02in /  0.51mm
11:44 55.1 °F /  12.8 °C 51.0 °F /  10.6 °C 29.89in /  1012.1hPa SSW 7.0mph /  11.3km/h 12.0mph /  19.3km/h 86% 0.02in /  0.51mm
11:49 55.3 °F /  12.9 °C 50.9 °F /  10.5 °C 29.89in /  1012.1hPa SSW 7.0mph /  11.3km/h 14.0mph /  22.5km/h 85% 0.02in /  0.51mm
11:54 55.4 °F /  13 °C 50.6 °F /  10.3 °C 29.88in /  1011.7hPa South 7.0mph /  11.3km/h 15.0mph /  24.1km/h 84% 0.02in /  0.51mm
11:59 55.8 °F /  13.2 °C 51.0 °F /  10.6 °C 29.88in /  1011.7hPa SSW 5.0mph /  8km/h 15.0mph /  24.1km/h 84% 0.02in /  0.51mm
12:04 56.1 °F /  13.4 °C 51.0 °F /  10.6 °C 29.88in /  1011.7hPa South 8.0mph /  12.9km/h 13.0mph /  20.9km/h 83% 0.02in /  0.51mm
12:09 56.5 °F /  13.6 °C 51.1 °F /  10.6 °C 29.88in /  1011.7hPa SW 14.0mph /  22.5km/h 21.0mph /  33.8km/h 82% 0.02in /  0.51mm
12:14 56.8 °F /  13.8 °C 51.4 °F /  10.8 °C 29.87in /  1011.4hPa SSW 9.0mph /  14.5km/h 21.0mph /  33.8km/h 82% 0.01in /  0.25mm
12:19 57.1 °F /  13.9 °C 51.3 °F /  10.7 °C 29.87in /  1011.4hPa SSW 9.0mph /  14.5km/h 18.0mph /  29km/h 81% 0.01in /  0.25mm
12:24 57.3 °F /  14.1 °C 51.2 °F /  10.7 °C 29.87in /  1011.4hPa South 7.0mph /  11.3km/h 18.0mph /  29km/h 80% 0.00in /  0mm
12:29 57.3 °F /  14.1 °C 51.2 °F /  10.7 °C 29.87in /  1011.4hPa SSW 11.0mph /  17.7km/h 19.0mph /  30.6km/h 80% 0.00in /  0mm
12:34 57.2 °F /  14 °C 51.1 °F /  10.6 °C 29.87in /  1011.4hPa SSW 4.0mph /  6.4km/h 18.0mph /  29km/h 80% 0.00in /  0mm
12:39 57.2 °F /  14 °C 51.1 °F /  10.6 °C 29.86in /  1011.1hPa South 7.0mph /  11.3km/h 19.0mph /  30.6km/h 80% 0.00in /  0mm
12:44 57.3 °F /  14.1 °C 51.2 °F /  10.7 °C 29.86in /  1011.1hPa SSW 10.0mph /  16.1km/h 19.0mph /  30.6km/h 80% 0.00in /  0mm
12:49 57.3 °F /  14.1 °C 51.2 °F /  10.7 °C 29.86in /  1011.1hPa SSW 9.0mph /  14.5km/h 19.0mph /  30.6km/h 80% 0.00in /  0mm
12:54 57.3 °F /  14.1 °C 50.8 °F /  10.4 °C 29.86in /  1011.1hPa SSW 9.0mph /  14.5km/h 19.0mph /  30.6km/h 79% 0.00in /  0mm
12:59 57.4 °F /  14.1 °C 50.9 °F /  10.5 °C 29.86in /  1011.1hPa South 15.0mph /  24.1km/h 17.0mph /  27.4km/h 79% 0.00in /  0mm
13:04 57.4 °F /  14.1 °C 50.9 °F /  10.5 °C 29.85in /  1010.7hPa South 9.0mph /  14.5km/h 19.0mph /  30.6km/h 79% 0.00in /  0mm
13:09 57.5 °F /  14.2 °C 51.0 °F /  10.6 °C 29.85in /  1010.7hPa South 10.0mph /  16.1km/h 15.0mph /  24.1km/h 79% 0.00in /  0mm
13:14 57.7 °F /  14.3 °C 50.9 °F /  10.5 °C 29.85in /  1010.7hPa SSW 6.0mph /  9.7km/h 19.0mph /  30.6km/h 78% 0.00in /  0mm
13:19 57.7 °F /  14.3 °C 50.9 °F /  10.5 °C 29.85in /  1010.7hPa SSW 9.0mph /  14.5km/h 19.0mph /  30.6km/h 78% 0.00in /  0mm
13:24 57.9 °F /  14.4 °C 51.1 °F /  10.6 °C 29.84in /  1010.4hPa SSW 8.0mph /  12.9km/h 17.0mph /  27.4km/h 78% 0.00in /  0mm
13:29 58.0 °F /  14.4 °C 51.2 °F /  10.7 °C 29.84in /  1010.4hPa SSW 8.0mph /  12.9km/h 18.0mph /  29km/h 78% 0.00in /  0mm
13:34 57.8 °F /  14.3 °C 51.3 °F /  10.7 °C 29.84in /  1010.4hPa SSE 5.0mph /  8km/h 12.0mph /  19.3km/h 79% 0.00in /  0mm
13:39 57.6 °F /  14.2 °C 51.5 °F /  10.8 °C 29.84in /  1010.4hPa WSW 6.0mph /  9.7km/h 11.0mph /  17.7km/h 80% 0.00in /  0mm
13:44 57.4 °F /  14.1 °C 51.6 °F /  10.9 °C 29.83in /  1010hPa SSW 4.0mph /  6.4km/h 13.0mph /  20.9km/h 81% 0.00in /  0mm
13:49 57.2 °F /  14 °C 51.4 °F /  10.8 °C 29.83in /  1010hPa SSW 7.0mph /  11.3km/h 13.0mph /  20.9km/h 81% 0.01in /  0.25mm
13:54 57.2 °F /  14 °C 51.4 °F /  10.8 °C 29.82in /  1009.7hPa SSW 8.0mph /  12.9km/h 20.0mph /  32.2km/h 81% 0.01in /  0.25mm
13:59 57.0 °F /  13.9 °C 51.9 °F /  11.1 °C 29.82in /  1009.7hPa SSW 7.0mph /  11.3km/h 20.0mph /  32.2km/h 83% 0.01in /  0.25mm
14:04 56.9 °F /  13.8 °C 51.8 °F /  11 °C 29.82in /  1009.7hPa SSW 7.0mph /  11.3km/h 16.0mph /  25.7km/h 83% 0.01in /  0.25mm
14:09 56.6 °F /  13.7 °C 51.5 °F /  10.8 °C 29.82in /  1009.7hPa SSW 8.0mph /  12.9km/h 16.0mph /  25.7km/h 83% 0.02in /  0.51mm
14:14 56.4 °F /  13.6 °C 51.6 °F /  10.9 °C 29.82in /  1009.7hPa WSW 9.0mph /  14.5km/h 14.0mph /  22.5km/h 84% 0.02in /  0.51mm
14:19 56.3 °F /  13.5 °C 51.5 °F /  10.8 °C 29.82in /  1009.7hPa South 6.0mph /  9.7km/h 17.0mph /  27.4km/h 84% 0.03in /  0.76mm
14:24 56.2 °F /  13.4 °C 51.7 °F /  10.9 °C 29.81in /  1009.4hPa SSW 8.0mph /  12.9km/h 17.0mph /  27.4km/h 85% 0.03in /  0.76mm
14:29 56.6 °F /  13.7 °C 52.5 °F /  11.4 °C 29.81in /  1009.4hPa SW 5.0mph /  8km/h 11.0mph /  17.7km/h 86% 0.03in /  0.76mm
14:34 56.8 °F /  13.8 °C 52.3 °F /  11.3 °C 29.81in /  1009.4hPa SW 12.0mph /  19.3km/h 12.0mph /  19.3km/h 85% 0.03in /  0.76mm
14:39 56.7 °F /  13.7 °C 51.9 °F /  11.1 °C 29.81in /  1009.4hPa South 3.0mph /  4.8km/h 17.0mph /  27.4km/h 84% 0.03in /  0.76mm
14:44 56.7 °F /  13.7 °C 51.9 °F /  11.1 °C 29.81in /  1009.4hPa South 9.0mph /  14.5km/h 18.0mph /  29km/h 84% 0.03in /  0.76mm
14:49 56.8 °F /  13.8 °C 52.0 °F /  11.1 °C 29.81in /  1009.4hPa SSW 7.0mph /  11.3km/h 18.0mph /  29km/h 84% 0.02in /  0.51mm
14:54 57.0 °F /  13.9 °C 51.9 °F /  11.1 °C 29.80in /  1009hPa SSW 8.0mph /  12.9km/h 18.0mph /  29km/h 83% 0.02in /  0.51mm
14:59 57.3 °F /  14.1 °C 52.2 °F /  11.2 °C 29.80in /  1009hPa SSW 7.0mph /  11.3km/h 15.0mph /  24.1km/h 83% 0.02in /  0.51mm
15:04 57.4 °F /  14.1 °C 51.9 °F /  11.1 °C 29.79in /  1008.7hPa South 5.0mph /  8km/h 16.0mph /  25.7km/h 82% 0.02in /  0.51mm
15:09 57.8 °F /  14.3 °C 52.3 °F /  11.3 °C 29.80in /  1009hPa South 10.0mph /  16.1km/h 17.0mph /  27.4km/h 82% 0.01in /  0.25mm
15:14 58.3 °F /  14.6 °C 52.5 °F /  11.4 °C 29.80in /  1009hPa South 7.0mph /  11.3km/h 16.0mph /  25.7km/h 81% 0.01in /  0.25mm
15:19 58.2 °F /  14.6 °C 52.4 °F /  11.3 °C 29.81in /  1009.4hPa SW 6.0mph /  9.7km/h 15.0mph /  24.1km/h 81% 0.00in /  0mm
15:24 58.2 °F /  14.6 °C 52.4 °F /  11.3 °C 29.81in /  1009.4hPa South 5.0mph /  8km/h 12.0mph /  19.3km/h 81% 0.00in /  0mm
15:29 58.2 °F /  14.6 °C 52.4 °F /  11.3 °C 29.80in /  1009hPa SW 7.0mph /  11.3km/h 12.0mph /  19.3km/h 81% 0.00in /  0mm
15:34 57.9 °F /  14.4 °C 52.1 °F /  11.2 °C 29.81in /  1009.4hPa SW 6.0mph /  9.7km/h 14.0mph /  22.5km/h 81% 0.00in /  0mm
15:39 57.8 °F /  14.3 °C 51.7 °F /  10.9 °C 29.81in /  1009.4hPa SW 7.0mph /  11.3km/h 14.0mph /  22.5km/h 80% 0.00in /  0mm
15:44 57.6 °F /  14.2 °C 51.8 °F /  11 °C 29.80in /  1009hPa SW 7.0mph /  11.3km/h 15.0mph /  24.1km/h 81% 0.00in /  0mm
15:49 57.6 °F /  14.2 °C 51.8 °F /  11 °C 29.80in /  1009hPa SSW 6.0mph /  9.7km/h 15.0mph /  24.1km/h 81% 0.00in /  0mm
15:54 57.5 °F /  14.2 °C 51.7 °F /  10.9 °C 29.80in /  1009hPa SW 6.0mph /  9.7km/h 16.0mph /  25.7km/h 81% 0.00in /  0mm
15:59 57.3 °F /  14.1 °C 51.5 °F /  10.8 °C 29.80in /  1009hPa SSW 6.0mph /  9.7km/h 12.0mph /  19.3km/h 81% 0.00in /  0mm
16:04 57.1 °F /  13.9 °C 51.3 °F /  10.7 °C 29.81in /  1009.4hPa South 3.0mph /  4.8km/h 11.0mph /  17.7km/h 81% 0.00in /  0mm
16:09 57.0 °F /  13.9 °C 51.2 °F /  10.7 °C 29.81in /  1009.4hPa SW 3.0mph /  4.8km/h 9.0mph /  14.5km/h 81% 0.00in /  0mm
16:14 56.9 °F /  13.8 °C 51.1 °F /  10.6 °C 29.81in /  1009.4hPa WSW 4.0mph /  6.4km/h 9.0mph /  14.5km/h 81% 0.00in /  0mm
16:19 56.7 °F /  13.7 °C 50.9 °F /  10.5 °C 29.81in /  1009.4hPa WSW 4.0mph /  6.4km/h 7.0mph /  11.3km/h 81% 0.00in /  0mm
16:24 55.9 °F /  13.3 °C 49.8 °F /  9.9 °C 29.82in /  1009.7hPa SW 2.0mph /  3.2km/h 10.0mph /  16.1km/h 80% 0.00in /  0mm
16:29 55.2 °F /  12.9 °C 49.5 °F /  9.7 °C 29.82in /  1009.7hPa SW 9.0mph /  14.5km/h 12.0mph /  19.3km/h 81% 0.00in /  0mm
16:34 54.4 °F /  12.4 °C 48.7 °F /  9.3 °C 29.82in /  1009.7hPa SW 6.0mph /  9.7km/h 12.0mph /  19.3km/h 81% 0.00in /  0mm
16:39 53.9 °F /  12.2 °C 48.5 °F /  9.2 °C 29.82in /  1009.7hPa SW 6.0mph /  9.7km/h 11.0mph /  17.7km/h 82% 0.00in /  0mm
16:44 53.5 °F /  11.9 °C 48.5 °F /  9.2 °C 29.81in /  1009.4hPa SSW 6.0mph /  9.7km/h 13.0mph /  20.9km/h 83% 0.00in /  0mm
16:49 53.4 °F /  11.9 °C 48.7 °F /  9.3 °C 29.81in /  1009.4hPa SSW 5.0mph /  8km/h 13.0mph /  20.9km/h 84% 0.00in /  0mm
16:54 53.5 °F /  11.9 °C 48.8 °F /  9.3 °C 29.81in /  1009.4hPa SW 5.0mph /  8km/h 12.0mph /  19.3km/h 84% 0.00in /  0mm
16:59 53.6 °F /  12 °C 48.9 °F /  9.4 °C 29.81in /  1009.4hPa SW 6.0mph /  9.7km/h 12.0mph /  19.3km/h 84% 0.00in /  0mm
17:04 53.6 °F /  12 °C 48.9 °F /  9.4 °C 29.81in /  1009.4hPa SW 2.0mph /  3.2km/h 9.0mph /  14.5km/h 84% 0.00in /  0mm
17:09 53.7 °F /  12.1 °C 49.0 °F /  9.4 °C 29.81in /  1009.4hPa SW 2.0mph /  3.2km/h 9.0mph /  14.5km/h 84% 0.00in /  0mm
17:14 53.9 °F /  12.2 °C 49.2 °F /  9.6 °C 29.81in /  1009.4hPa SSW 4.0mph /  6.4km/h 6.0mph /  9.7km/h 84% 0.00in /  0mm
17:19 53.9 °F /  12.2 °C 49.2 °F /  9.6 °C 29.80in /  1009hPa SSW 1.0mph /  1.6km/h 6.0mph /  9.7km/h 84% 0.00in /  0mm
17:24 54.1 °F /  12.3 °C 49.4 °F /  9.7 °C 29.81in /  1009.4hPa SSW 1.0mph /  1.6km/h 4.0mph /  6.4km/h 84% 0.00in /  0mm
17:29 54.2 °F /  12.3 °C 49.5 °F /  9.7 °C 29.80in /  1009hPa SW 2.0mph /  3.2km/h 4.0mph /  6.4km/h 84% 0.00in /  0mm
17:34 54.6 °F /  12.6 °C 49.9 °F /  9.9 °C 29.80in /  1009hPa SW 3.0mph /  4.8km/h 6.0mph /  9.7km/h 84% 0.00in /  0mm
17:39 54.9 °F /  12.7 °C 50.2 °F /  10.1 °C 29.80in /  1009hPa SSW 3.0mph /  4.8km/h 6.0mph /  9.7km/h 84% 0.00in /  0mm
17:44 55.7 °F /  13.2 °C 50.6 °F /  10.3 °C 29.80in /  1009hPa SSW 4.0mph /  6.4km/h 8.0mph /  12.9km/h 83% 0.00in /  0mm
17:49 56.4 °F /  13.6 °C 51.0 °F /  10.6 °C 29.80in /  1009hPa SSW 6.0mph /  9.7km/h 18.0mph /  29km/h 82% 0.00in /  0mm
17:54 56.9 °F /  13.8 °C 50.8 °F /  10.4 °C 29.80in /  1009hPa SSW 6.0mph /  9.7km/h 18.0mph /  29km/h 80% 0.00in /  0mm
17:59 57.2 °F /  14 °C 51.1 °F /  10.6 °C 29.80in /  1009hPa SSW 6.0mph /  9.7km/h 14.0mph /  22.5km/h 80% 0.00in /  0mm
18:04 57.3 °F /  14.1 °C 50.8 °F /  10.4 °C 29.80in /  1009hPa SSW 6.0mph /  9.7km/h 15.0mph /  24.1km/h 79% 0.00in /  0mm
18:09 57.5 °F /  14.2 °C 51.0 °F /  10.6 °C 29.80in /  1009hPa SSW 7.0mph /  11.3km/h 15.0mph /  24.1km/h 79% 0.00in /  0mm
18:14 57.5 °F /  14.2 °C 51.0 °F /  10.6 °C 29.81in /  1009.4hPa SSW 8.0mph /  12.9km/h 18.0mph /  29km/h 79% 0.00in /  0mm
18:19 56.7 °F /  13.7 °C 49.6 °F /  9.8 °C 29.82in /  1009.7hPa WSW 11.0mph /  17.7km/h 21.0mph /  33.8km/h 77% 0.00in /  0mm
18:24 54.3 °F /  12.4 °C 48.3 °F /  9.1 °C 29.82in /  1009.7hPa WSW 10.0mph /  16.1km/h 14.0mph /  22.5km/h 80% 0.00in /  0mm
18:29 52.2 °F /  11.2 °C 47.5 °F /  8.6 °C 29.83in /  1010hPa WSW 5.0mph /  8km/h 12.0mph /  19.3km/h 84% 0.01in /  0.25mm
18:34 51.0 °F /  10.6 °C 47.0 °F /  8.3 °C 29.83in /  1010hPa WSW 7.0mph /  11.3km/h 10.0mph /  16.1km/h 86% 0.01in /  0.25mm
18:39 50.6 °F /  10.3 °C 46.9 °F /  8.3 °C 29.83in /  1010hPa WSW 5.0mph /  8km/h 10.0mph /  16.1km/h 87% 0.01in /  0.25mm
18:44 50.4 °F /  10.2 °C 47.3 °F /  8.5 °C 29.84in /  1010.4hPa WSW 5.0mph /  8km/h 10.0mph /  16.1km/h 89% 0.01in /  0.25mm
18:49 50.3 °F /  10.2 °C 47.2 °F /  8.4 °C 29.84in /  1010.4hPa West 7.0mph /  11.3km/h 14.0mph /  22.5km/h 89% 0.02in /  0.51mm
18:54 50.1 °F /  10.1 °C 47.0 °F /  8.3 °C 29.84in /  1010.4hPa West 8.0mph /  12.9km/h 18.0mph /  29km/h 89% 0.03in /  0.76mm
18:59 49.9 °F /  9.9 °C 46.8 °F /  8.2 °C 29.84in /  1010.4hPa West 8.0mph /  12.9km/h 18.0mph /  29km/h 89% 0.03in /  0.76mm
19:04 49.7 °F /  9.8 °C 46.6 °F /  8.1 °C 29.84in /  1010.4hPa WSW 10.0mph /  16.1km/h 12.0mph /  19.3km/h 89% 0.04in /  1.02mm
19:09 49.5 °F /  9.7 °C 46.7 °F /  8.2 °C 29.84in /  1010.4hPa West 6.0mph /  9.7km/h 12.0mph /  19.3km/h 90% 0.04in /  1.02mm
19:14 49.4 °F /  9.7 °C 46.6 °F /  8.1 °C 29.85in /  1010.7hPa WSW 6.0mph /  9.7km/h 12.0mph /  19.3km/h 90% 0.04in /  1.02mm
19:19 49.0 °F /  9.4 °C 46.2 °F /  7.9 °C 29.84in /  1010.4hPa SW 5.0mph /  8km/h 11.0mph /  17.7km/h 90% 0.04in /  1.02mm
19:24 48.6 °F /  9.2 °C 45.8 °F /  7.7 °C 29.84in /  1010.4hPa SW 6.0mph /  9.7km/h 14.0mph /  22.5km/h 90% 0.05in /  1.27mm
19:29 48.4 °F /  9.1 °C 45.6 °F /  7.6 °C 29.84in /  1010.4hPa WSW 7.0mph /  11.3km/h 14.0mph /  22.5km/h 90% 0.04in /  1.02mm
19:34 48.1 °F /  8.9 °C 45.3 °F /  7.4 °C 29.84in /  1010.4hPa SW 7.0mph /  11.3km/h 14.0mph /  22.5km/h 90% 0.04in /  1.02mm
19:39 47.8 °F /  8.8 °C 45.3 °F /  7.4 °C 29.85in /  1010.7hPa SW 4.0mph /  6.4km/h 14.0mph /  22.5km/h 91% 0.04in /  1.02mm
19:44 47.3 °F /  8.5 °C 44.5 °F /  6.9 °C 29.84in /  1010.4hPa West 7.0mph /  11.3km/h 14.0mph /  22.5km/h 90% 0.04in /  1.02mm
19:49 46.8 °F /  8.2 °C 44.3 °F /  6.8 °C 29.85in /  1010.7hPa WSW 6.0mph /  9.7km/h 14.0mph /  22.5km/h 91% 0.04in /  1.02mm
19:54 46.5 °F /  8.1 °C 44.0 °F /  6.7 °C 29.84in /  1010.4hPa WSW 7.0mph /  11.3km/h 12.0mph /  19.3km/h 91% 0.04in /  1.02mm
19:59 46.4 °F /  8 °C 43.9 °F /  6.6 °C 29.84in /  1010.4hPa WSW 5.0mph /  8km/h 12.0mph /  19.3km/h 91% 0.05in /  1.27mm
20:04 46.4 °F /  8 °C 44.2 °F /  6.8 °C 29.84in /  1010.4hPa WSW 4.0mph /  6.4km/h 9.0mph /  14.5km/h 92% 0.04in /  1.02mm
20:09 46.5 °F /  8.1 °C 44.3 °F /  6.8 °C 29.84in /  1010.4hPa SW 8.0mph /  12.9km/h 11.0mph /  17.7km/h 92% 0.04in /  1.02mm
20:14 46.7 °F /  8.2 °C 44.5 °F /  6.9 °C 29.84in /  1010.4hPa SW 6.0mph /  9.7km/h 8.0mph /  12.9km/h 92% 0.04in /  1.02mm
20:19 46.7 °F /  8.2 °C 44.5 °F /  6.9 °C 29.84in /  1010.4hPa WSW 5.0mph /  8km/h 14.0mph /  22.5km/h 92% 0.05in /  1.27mm
20:24 46.5 °F /  8.1 °C 44.3 °F /  6.8 °C 29.84in /  1010.4hPa SW 7.0mph /  11.3km/h 14.0mph /  22.5km/h 92% 0.04in /  1.02mm
20:29 46.2 °F /  7.9 °C 44.0 °F /  6.7 °C 29.84in /  1010.4hPa SW 8.0mph /  12.9km/h 14.0mph /  22.5km/h 92% 0.04in /  1.02mm
20:34 45.8 °F /  7.7 °C 43.6 °F /  6.4 °C 29.85in /  1010.7hPa SW 8.0mph /  12.9km/h 14.0mph /  22.5km/h 92% 0.04in /  1.02mm
20:39 45.6 °F /  7.6 °C 43.4 °F /  6.3 °C 29.85in /  1010.7hPa West 10.0mph /  16.1km/h 13.0mph /  20.9km/h 92% 0.05in /  1.27mm
20:44 45.3 °F /  7.4 °C 43.1 °F /  6.2 °C 29.86in /  1011.1hPa SW 7.0mph /  11.3km/h 14.0mph /  22.5km/h 92% 0.07in /  1.78mm
20:49 45.2 °F /  7.3 °C 43.0 °F /  6.1 °C 29.87in /  1011.4hPa WSW 8.0mph /  12.9km/h 15.0mph /  24.1km/h 92% 0.07in /  1.78mm
20:54 45.1 °F /  7.3 °C 42.9 °F /  6.1 °C 29.87in /  1011.4hPa WSW 7.0mph /  11.3km/h 15.0mph /  24.1km/h 92% 0.06in /  1.52mm
20:59 44.8 °F /  7.1 °C 42.6 °F /  5.9 °C 29.87in /  1011.4hPa SW 7.0mph /  11.3km/h 16.0mph /  25.7km/h 92% 0.05in /  1.27mm
21:04 44.4 °F /  6.9 °C 42.2 °F /  5.7 °C 29.87in /  1011.4hPa West 4.0mph /  6.4km/h 13.0mph /  20.9km/h 92% 0.06in /  1.52mm
21:09 44.2 °F /  6.8 °C 42.0 °F /  5.6 °C 29.88in /  1011.7hPa WSW 7.0mph /  11.3km/h 10.0mph /  16.1km/h 92% 0.06in /  1.52mm
21:14 44.0 °F /  6.7 °C 41.8 °F /  5.4 °C 29.88in /  1011.7hPa West 6.0mph /  9.7km/h 12.0mph /  19.3km/h 92% 0.06in /  1.52mm
21:19 43.6 °F /  6.4 °C 41.4 °F /  5.2 °C 29.88in /  1011.7hPa WNW 4.0mph /  6.4km/h 12.0mph /  19.3km/h 92% 0.06in /  1.52mm
21:24 43.3 °F /  6.3 °C 41.1 °F /  5.1 °C 29.89in /  1012.1hPa West 6.0mph /  9.7km/h 14.0mph /  22.5km/h 92% 0.06in /  1.52mm
21:29 43.0 °F /  6.1 °C 40.8 °F /  4.9 °C 29.89in /  1012.1hPa WSW 7.0mph /  11.3km/h 14.0mph /  22.5km/h 92% 0.06in /  1.52mm
21:34 42.7 °F /  5.9 °C 40.5 °F /  4.7 °C 29.89in /  1012.1hPa WSW 7.0mph /  11.3km/h 13.0mph /  20.9km/h 92% 0.06in /  1.52mm
21:39 42.4 °F /  5.8 °C 40.2 °F /  4.6 °C 29.90in /  1012.4hPa WSW 7.0mph /  11.3km/h 13.0mph /  20.9km/h 92% 0.06in /  1.52mm
21:44 42.2 °F /  5.7 °C 40.0 °F /  4.4 °C 29.90in /  1012.4hPa WSW 7.0mph /  11.3km/h 16.0mph /  25.7km/h 92% 0.04in /  1.02mm
21:49 41.9 °F /  5.5 °C 39.7 °F /  4.3 °C 29.90in /  1012.4hPa WSW 8.0mph /  12.9km/h 17.0mph /  27.4km/h 92% 0.04in /  1.02mm
21:54 41.7 °F /  5.4 °C 39.5 °F /  4.2 °C 29.90in /  1012.4hPa West 7.0mph /  11.3km/h 12.0mph /  19.3km/h 92% 0.06in /  1.52mm
21:59 41.5 °F /  5.3 °C 39.3 °F /  4.1 °C 29.91in /  1012.8hPa WSW 7.0mph /  11.3km/h 12.0mph /  19.3km/h 92% 0.06in /  1.52mm
22:04 41.4 °F /  5.2 °C 39.3 °F /  4.1 °C 29.92in /  1013.1hPa SW 5.0mph /  8km/h 12.0mph /  19.3km/h 92% 0.06in /  1.52mm
22:09 41.4 °F /  5.2 °C 39.3 °F /  4.1 °C 29.92in /  1013.1hPa West 7.0mph /  11.3km/h 12.0mph /  19.3km/h 92% 0.06in /  1.52mm
22:14 41.4 °F /  5.2 °C 39.3 °F /  4.1 °C 29.91in /  1012.8hPa WSW 3.0mph /  4.8km/h 9.0mph /  14.5km/h 92% 0.06in /  1.52mm
22:19 41.5 °F /  5.3 °C 39.3 °F /  4.1 °C 29.90in /  1012.4hPa Calm   9.0mph /  14.5km/h 92% 0.05in /  1.27mm
22:24 41.6 °F /  5.3 °C 39.4 °F /  4.1 °C 29.90in /  1012.4hPa SW 2.0mph /  3.2km/h 7.0mph /  11.3km/h 92% 0.06in /  1.52mm
22:29 41.8 °F /  5.4 °C 39.4 °F /  4.1 °C 29.92in /  1013.1hPa WSW 3.0mph /  4.8km/h 8.0mph /  12.9km/h 91% 0.06in /  1.52mm
22:34 41.9 °F /  5.5 °C 39.2 °F /  4 °C 29.92in /  1013.1hPa West 4.0mph /  6.4km/h 8.0mph /  12.9km/h 90% 0.06in /  1.52mm
22:39 41.8 °F /  5.4 °C 38.8 °F /  3.8 °C 29.92in /  1013.1hPa WSW 5.0mph /  8km/h 11.0mph /  17.7km/h 89% 0.05in /  1.27mm
22:44 41.8 °F /  5.4 °C 38.2 °F /  3.4 °C 29.91in /  1012.8hPa WSW 6.0mph /  9.7km/h 11.0mph /  17.7km/h 87% 0.05in /  1.27mm
22:49 41.8 °F /  5.4 °C 38.2 °F /  3.4 °C 29.92in /  1013.1hPa WSW 4.0mph /  6.4km/h 9.0mph /  14.5km/h 87% 0.04in /  1.02mm
22:54 41.8 °F /  5.4 °C 37.6 °F /  3.1 °C 29.92in /  1013.1hPa SW 6.0mph /  9.7km/h 7.0mph /  11.3km/h 85% 0.02in /  0.51mm
22:59 41.8 °F /  5.4 °C 37.3 °F /  2.9 °C 29.92in /  1013.1hPa WSW 3.0mph /  4.8km/h 8.0mph /  12.9km/h 84% 0.02in /  0.51mm
23:04 41.9 °F /  5.5 °C 37.1 °F /  2.8 °C 29.92in /  1013.1hPa SW 4.0mph /  6.4km/h 8.0mph /  12.9km/h 83% 0.01in /  0.25mm
23:09 41.8 °F /  5.4 °C 36.7 °F /  2.6 °C 29.91in /  1012.8hPa SW 3.0mph /  4.8km/h 8.0mph /  12.9km/h 82% 0.01in /  0.25mm
23:14 41.6 °F /  5.3 °C 36.5 °F /  2.5 °C 29.92in /  1013.1hPa SW 3.0mph /  4.8km/h 7.0mph /  11.3km/h 82% 0.01in /  0.25mm
23:19 41.5 °F /  5.3 °C 36.4 °F /  2.4 °C 29.91in /  1012.8hPa SW 7.0mph /  11.3km/h 9.0mph /  14.5km/h 82% 0.01in /  0.25mm
23:24 42.2 °F /  5.7 °C 35.5 °F /  1.9 °C 29.91in /  1012.8hPa WNW 4.0mph /  6.4km/h 11.0mph /  17.7km/h 77% 0.00in /  0mm
23:29 42.5 °F /  5.8 °C 35.5 °F /  1.9 °C 29.92in /  1013.1hPa SW 4.0mph /  6.4km/h 8.0mph /  12.9km/h 76% 0.00in /  0mm
23:34 42.8 °F /  6 °C 35.1 °F /  1.7 °C 29.92in /  1013.1hPa West 10.0mph /  16.1km/h 12.0mph /  19.3km/h 74% 0.00in /  0mm
23:39 42.9 °F /  6.1 °C 35.2 °F /  1.8 °C 29.91in /  1012.8hPa WSW 6.0mph /  9.7km/h 12.0mph /  19.3km/h 74% 0.00in /  0mm
23:44 43.5 °F /  6.4 °C 33.6 °F /  0.9 °C 29.92in /  1013.1hPa WSW 7.0mph /  11.3km/h 15.0mph /  24.1km/h 68% 0.00in /  0mm
23:49 43.4 °F /  6.3 °C 34.6 °F /  1.4 °C 29.92in /  1013.1hPa WSW 6.0mph /  9.7km/h 15.0mph /  24.1km/h 71% 0.00in /  0mm
23:54 43.0 °F /  6.1 °C 34.6 °F /  1.4 °C 29.93in /  1013.4hPa SW 5.0mph /  8km/h 8.0mph /  12.9km/h 72% 0.00in /  0mm
23:59 42.8 °F /  6 °C 34.7 °F /  1.5 °C 29.92in /  1013.1hPa SW 2.0mph /  3.2km/h 7.0mph /  11.3km/h 73% 0.00in /  0mm
Buffalo, New York, USA
Compliments of Weather Underground - 2.5 mb